createdAt,value
2019-01-21T00:00:58.265Z,10.97
2019-01-21T00:03:27.369Z,11.20
2019-01-21T00:05:56.476Z,11.17
2019-01-21T00:08:25.560Z,11.97
2019-01-21T00:10:54.674Z,12.73
2019-01-21T00:13:23.808Z,11.03
2019-01-21T00:15:52.960Z,12.00
2019-01-21T00:18:22.036Z,11.67
2019-01-21T00:20:51.139Z,12.20
2019-01-21T00:23:20.264Z,12.10
2019-01-21T00:25:49.337Z,12.10
2019-01-21T00:28:20.068Z,12.53
2019-01-21T00:30:49.215Z,12.80
2019-01-21T00:33:18.300Z,12.83
2019-01-21T00:35:47.389Z,12.53
2019-01-21T00:38:16.497Z,11.43
2019-01-21T00:40:45.585Z,12.13
2019-01-21T00:43:14.701Z,12.50
2019-01-21T00:45:43.792Z,12.23
2019-01-21T00:48:12.932Z,13.07
2019-01-21T00:50:42.033Z,12.83
2019-01-21T00:53:11.136Z,12.40
2019-01-21T00:55:40.261Z,13.17
2019-01-21T00:58:09.360Z,12.10
2019-01-21T01:00:38.458Z,13.23
2019-01-21T01:03:07.869Z,11.53
2019-01-21T01:05:36.959Z,10.67
2019-01-21T01:08:06.236Z,10.83
2019-01-21T01:10:35.328Z,11.43
2019-01-21T01:13:04.444Z,12.13
2019-01-21T01:15:33.528Z,13.07
2019-01-21T01:18:02.645Z,12.70
2019-01-21T01:20:31.731Z,12.80
2019-01-21T01:23:00.858Z,13.40
2019-01-21T01:25:29.948Z,13.37
2019-01-21T01:27:59.122Z,13.77
2019-01-21T01:30:28.164Z,13.07
2019-01-21T01:32:57.264Z,13.40
2019-01-21T01:35:26.377Z,12.53
2019-01-21T01:37:55.468Z,11.93
2019-01-21T01:40:24.573Z,12.03
2019-01-21T01:42:53.660Z,12.30
2019-01-21T01:45:24.709Z,13.07
2019-01-21T01:48:03.773Z,11.27
2019-01-21T01:50:32.997Z,12.57
2019-01-21T01:53:02.109Z,12.50
2019-01-21T01:55:31.980Z,12.10
2019-01-21T01:58:02.591Z,12.47
2019-01-21T02:00:31.797Z,13.23
2019-01-21T02:03:00.988Z,13.03
2019-01-21T02:05:30.093Z,13.47
2019-01-21T02:07:59.382Z,13.07
2019-01-21T02:10:28.770Z,12.77
2019-01-21T02:12:57.861Z,12.50
2019-01-21T02:15:26.965Z,12.53
2019-01-21T02:17:56.043Z,11.93
2019-01-21T02:20:25.152Z,11.73
2019-01-21T02:23:01.693Z,12.83
2019-01-21T02:25:50.452Z,12.40
2019-01-21T02:28:49.708Z,11.63
2019-01-21T02:31:48.329Z,11.03
2019-01-21T02:35:04.692Z,11.30
2019-01-21T02:38:14.710Z,10.03
2019-01-21T02:41:24.626Z,11.73
2019-01-21T02:44:24.357Z,11.60
2019-01-21T02:47:18.697Z,12.03
2019-01-21T02:50:06.037Z,11.77
2019-01-21T02:52:50.236Z,11.53
2019-01-21T02:56:00.106Z,11.87
2019-01-21T02:58:40.917Z,11.53
2019-01-21T03:01:37.588Z,10.83
2019-01-21T03:04:34.643Z,11.30
2019-01-21T03:07:23.339Z,10.93
2019-01-21T03:10:13.992Z,11.20
2019-01-21T03:13:01.279Z,9.23
2019-01-21T03:16:00.313Z,11.50
2019-01-21T03:19:37.590Z,11.03
2019-01-21T03:22:31.747Z,10.73
2019-01-21T03:25:33.228Z,10.73
2019-01-21T03:28:39.067Z,10.93
2019-01-21T03:31:43.698Z,10.00
2019-01-21T03:34:34.572Z,10.97
2019-01-21T03:37:43.358Z,10.57
2019-01-21T03:40:40.891Z,10.07
2019-01-21T03:44:04.606Z,10.20
2019-01-21T03:47:11.244Z,10.33
2019-01-21T03:50:03.715Z,9.43
2019-01-21T03:52:44.526Z,10.37
2019-01-21T03:55:15.890Z,9.47
2019-01-21T03:58:37.022Z,10.70
2019-01-21T04:01:19.144Z,9.37
2019-01-21T04:04:10.196Z,9.47
2019-01-21T04:07:04.637Z,8.90
2019-01-21T04:10:11.909Z,10.60
2019-01-21T04:13:01.794Z,10.00
2019-01-21T04:16:16.360Z,10.00
2019-01-21T04:19:30.079Z,9.77
2019-01-21T04:22:36.563Z,10.17
2019-01-21T04:25:32.084Z,10.30
2019-01-21T04:28:22.303Z,10.17
2019-01-21T04:31:22.931Z,9.97
2019-01-21T04:34:05.803Z,10.13
2019-01-21T04:37:27.817Z,10.17
2019-01-21T04:40:14.162Z,9.73
2019-01-21T04:43:27.173Z,9.63
2019-01-21T04:46:29.796Z,9.60
2019-01-21T04:49:09.351Z,9.80
2019-01-21T04:52:06.046Z,10.87
2019-01-21T04:55:10.177Z,9.67
2019-01-21T04:58:02.049Z,9.47
2019-01-21T05:01:03.534Z,8.90
2019-01-21T05:04:12.133Z,9.70
2019-01-21T05:07:25.300Z,10.10
2019-01-21T05:10:21.977Z,9.87
2019-01-21T05:13:27.191Z,9.23
2019-01-21T05:16:41.220Z,9.70
2019-01-21T05:19:41.042Z,9.57
2019-01-21T05:25:07.998Z,9.77
2019-01-21T05:28:33.342Z,10.30
2019-01-21T05:31:35.455Z,9.70
2019-01-21T05:34:33.087Z,9.33
2019-01-21T05:37:35.481Z,9.70
2019-01-21T05:40:41.126Z,10.30
2019-01-21T05:43:46.957Z,9.50
2019-01-21T05:46:45.061Z,9.30
2019-01-21T05:50:04.070Z,9.97
2019-01-21T05:53:15.768Z,10.00
2019-01-21T05:56:40.938Z,8.93
2019-01-21T06:00:01.821Z,10.63
2019-01-21T06:03:09.545Z,10.23
2019-01-21T06:06:24.929Z,9.63
2019-01-21T06:09:29.690Z,10.43
2019-01-21T06:12:05.566Z,9.13
2019-01-21T06:15:18.666Z,9.97
2019-01-21T06:18:08.877Z,10.33
2019-01-21T06:21:13.468Z,9.77
2019-01-21T06:24:30.136Z,9.40
2019-01-21T06:27:39.222Z,9.37
2019-01-21T06:31:07.092Z,10.43
2019-01-21T06:34:04.481Z,10.00
2019-01-21T06:37:06.972Z,8.57
2019-01-21T06:40:27.543Z,10.47
2019-01-21T06:43:22.033Z,10.20
2019-01-21T06:46:50.296Z,9.67
2019-01-21T06:50:02.571Z,10.57
2019-01-21T06:52:59.119Z,10.27
2019-01-21T06:56:10.895Z,9.13
2019-01-21T06:59:35.800Z,10.33
2019-01-21T07:02:44.831Z,10.70
2019-01-21T07:05:54.856Z,9.73
2019-01-21T07:08:43.293Z,10.23
2019-01-21T07:11:40.870Z,9.63
2019-01-21T07:14:50.129Z,9.83
2019-01-21T07:18:10.765Z,9.83
2019-01-21T07:21:27.168Z,10.63
2019-01-21T07:24:21.904Z,9.97
2019-01-21T07:27:35.069Z,10.63
2019-01-21T07:30:45.477Z,10.17
2019-01-21T07:33:42.827Z,10.20
2019-01-21T07:36:31.641Z,10.20
2019-01-21T07:39:59.516Z,10.70
2019-01-21T07:42:58.547Z,10.60
2019-01-21T07:46:09.663Z,10.10
2019-01-21T07:49:26.783Z,9.67
2019-01-21T07:52:33.129Z,12.23
2019-01-21T07:55:10.631Z,9.93
2019-01-21T07:58:26.576Z,11.07
2019-01-21T08:01:21.438Z,10.37
2019-01-21T08:04:32.769Z,10.27
2019-01-21T08:07:29.222Z,11.47
2019-01-21T08:10:36.841Z,11.87
2019-01-21T08:13:41.465Z,11.33
2019-01-21T08:17:15.507Z,10.80
2019-01-21T08:20:17.884Z,9.70
2019-01-21T08:23:30.435Z,11.70
2019-01-21T08:26:23.368Z,12.00
2019-01-21T08:29:26.074Z,12.50
2019-01-21T08:32:02.536Z,13.37
2019-01-21T08:35:01.092Z,11.87
2019-01-21T08:38:10.484Z,12.40
2019-01-21T08:41:31.601Z,12.33
2019-01-21T08:44:39.852Z,12.40
2019-01-21T08:47:25.326Z,13.70
2019-01-21T08:50:19.969Z,14.33
2019-01-21T08:53:28.511Z,13.67
2019-01-21T08:56:44.403Z,13.67
2019-01-21T08:59:54.585Z,14.90
2019-01-21T09:03:03.108Z,13.40
2019-01-21T09:06:25.389Z,14.00
2019-01-21T09:09:21.102Z,13.03
2019-01-21T09:12:16.852Z,13.67
2019-01-21T09:15:18.998Z,12.20
2019-01-21T09:18:04.864Z,10.67
2019-01-21T09:21:08.017Z,10.73
2019-01-21T09:23:58.732Z,12.30
2019-01-21T09:26:50.595Z,10.60
2019-01-21T09:30:01.965Z,11.17
2019-01-21T09:33:09.141Z,10.77
2019-01-21T09:36:03.781Z,11.27
2019-01-21T09:39:27.837Z,11.93
2019-01-21T09:42:20.692Z,14.10
2019-01-21T09:45:26.249Z,11.90
2019-01-21T09:47:53.725Z,12.37
2019-01-21T09:50:22.850Z,11.53
2019-01-21T09:52:52.145Z,10.83
2019-01-21T09:55:23.237Z,11.40
2019-01-21T09:58:03.482Z,11.50
2019-01-21T10:00:32.701Z,10.97
2019-01-21T10:03:03.613Z,10.97
2019-01-21T10:05:33.852Z,11.13
2019-01-21T10:08:29.916Z,11.23
2019-01-21T10:11:38.649Z,13.90
2019-01-21T10:14:54.868Z,13.37
2019-01-21T10:17:46.973Z,11.43
2019-01-21T10:20:27.898Z,12.00
2019-01-21T10:23:52.981Z,11.47
2019-01-21T10:26:51.864Z,11.43
2019-01-21T10:29:46.900Z,11.33
2019-01-21T10:32:55.784Z,11.00
2019-01-21T10:36:03.895Z,12.23
2019-01-21T10:39:38.150Z,11.57
2019-01-21T10:42:32.193Z,12.00
2019-01-21T10:45:36.704Z,11.47
2019-01-21T10:48:24.424Z,11.17
2019-01-21T10:51:25.707Z,11.83
2019-01-21T10:54:28.190Z,11.33
2019-01-21T10:57:41.306Z,11.63
2019-01-21T11:00:55.865Z,14.13
2019-01-21T11:03:41.765Z,13.47
2019-01-21T11:06:49.047Z,13.80
2019-01-21T11:09:40.022Z,14.13
2019-01-21T11:12:56.300Z,14.67
2019-01-21T11:15:59.573Z,15.17
2019-01-21T11:19:04.380Z,14.70
2019-01-21T11:22:02.822Z,14.83
2019-01-21T11:24:57.917Z,14.23
2019-01-21T11:28:12.808Z,13.80
2019-01-21T11:31:11.837Z,13.93
2019-01-21T11:34:24.832Z,13.77
2019-01-21T11:37:33.721Z,13.40
2019-01-21T11:40:50.126Z,14.43
2019-01-21T11:43:49.930Z,13.70
2019-01-21T11:46:50.753Z,14.03
2019-01-21T11:49:53.635Z,14.97
2019-01-21T11:52:52.012Z,15.20
2019-01-21T11:55:50.193Z,14.60
2019-01-21T11:58:38.058Z,14.20
2019-01-21T12:01:17.032Z,13.23
2019-01-21T12:03:59.138Z,13.70
2019-01-21T12:06:36.908Z,14.60
2019-01-21T12:09:45.207Z,14.33
2019-01-21T12:12:55.239Z,15.10
2019-01-21T12:16:09.976Z,15.00
2019-01-21T12:19:07.960Z,13.27
2019-01-21T12:22:16.223Z,14.40
2019-01-21T12:24:54.425Z,13.57
2019-01-21T12:27:59.904Z,14.27
2019-01-21T12:30:55.754Z,14.37
2019-01-21T12:33:51.768Z,13.93
2019-01-21T12:36:41.463Z,13.70
2019-01-21T12:39:47.917Z,14.70
2019-01-21T12:42:50.607Z,14.47
2019-01-21T12:46:06.013Z,14.70
2019-01-21T12:49:21.880Z,14.27
2019-01-21T12:52:33.808Z,13.90
2019-01-21T12:55:40.454Z,14.63
2019-01-21T12:58:43.360Z,14.50
2019-01-21T13:02:17.180Z,13.37
2019-01-21T13:05:12.683Z,13.40
2019-01-21T13:07:55.267Z,13.00
2019-01-21T13:10:49.906Z,14.53
2019-01-21T13:14:02.064Z,14.90
2019-01-21T13:16:48.532Z,14.57
2019-01-21T13:20:00.664Z,12.20
2019-01-21T13:23:01.249Z,13.43
2019-01-21T13:26:05.864Z,13.13
2019-01-21T13:29:10.764Z,13.40
2019-01-21T13:32:26.334Z,14.77
2019-01-21T13:35:31.049Z,13.77
2019-01-21T13:38:26.717Z,13.70
2019-01-21T13:41:51.013Z,14.17
2019-01-21T13:44:51.707Z,14.37
2019-01-21T13:47:53.573Z,13.53
2019-01-21T13:50:58.633Z,15.60
2019-01-21T13:54:02.762Z,13.37
2019-01-21T13:57:12.907Z,13.77
2019-01-21T14:00:21.040Z,13.50
2019-01-21T14:03:09.155Z,14.40
2019-01-21T14:06:22.684Z,14.57
2019-01-21T14:09:35.613Z,14.23
2019-01-21T14:12:34.786Z,13.73
2019-01-21T14:15:41.616Z,14.17
2019-01-21T14:18:56.252Z,15.17
2019-01-21T14:22:06.584Z,12.70
2019-01-21T14:25:23.008Z,13.33
2019-01-21T14:28:28.608Z,12.63
2019-01-21T14:31:21.193Z,13.80
2019-01-21T14:34:39.501Z,13.53
2019-01-21T14:37:45.378Z,13.17
2019-01-21T14:40:26.536Z,13.50
2019-01-21T14:43:48.821Z,13.73
2019-01-21T14:46:38.733Z,14.20
2019-01-21T14:49:42.036Z,14.57
2019-01-21T14:52:47.015Z,14.07
2019-01-21T14:56:18.178Z,14.30
2019-01-21T14:59:18.455Z,14.77
2019-01-21T15:02:01.898Z,14.53
2019-01-21T15:05:22.751Z,15.03
2019-01-21T15:08:31.478Z,14.03
2019-01-21T15:11:27.984Z,14.37
2019-01-21T15:14:19.725Z,14.60
2019-01-21T15:17:02.241Z,15.20
2019-01-21T15:20:06.669Z,15.77
2019-01-21T15:23:00.669Z,15.97
2019-01-21T15:26:08.466Z,14.60
2019-01-21T15:29:02.153Z,15.47
2019-01-21T15:32:02.727Z,16.03
2019-01-21T15:35:33.968Z,15.53
2019-01-21T15:38:33.497Z,15.33
2019-01-21T15:41:31.501Z,15.67
2019-01-21T15:44:24.704Z,15.40
2019-01-21T15:47:35.975Z,15.77
2019-01-21T15:50:46.051Z,15.43
2019-01-21T15:53:40.136Z,16.00
2019-01-21T15:56:40.497Z,15.60
2019-01-21T15:59:39.241Z,15.40
2019-01-21T16:02:38.644Z,14.97
2019-01-21T16:05:19.528Z,16.83
2019-01-21T16:07:55.912Z,15.80
2019-01-21T16:10:50.836Z,16.23
2019-01-21T16:13:45.664Z,19.77
2019-01-21T16:16:33.489Z,19.10
2019-01-21T16:19:12.280Z,16.07
2019-01-21T16:22:12.992Z,16.50
2019-01-21T16:24:56.008Z,15.17
2019-01-21T16:27:54.076Z,16.47
2019-01-21T16:30:34.042Z,16.07
2019-01-21T16:33:43.392Z,15.50
2019-01-21T16:36:24.066Z,14.90
2019-01-21T16:39:03.180Z,14.13
2019-01-21T16:41:46.655Z,13.77
2019-01-21T16:44:15.744Z,14.00
2019-01-21T16:46:44.849Z,15.40
2019-01-21T16:49:13.949Z,14.07
2019-01-21T16:51:43.086Z,14.73
2019-01-21T16:54:12.847Z,30.97
2019-01-21T16:56:41.973Z,14.73
2019-01-21T16:59:11.058Z,13.33
2019-01-21T17:01:40.212Z,13.20
2019-01-21T17:04:09.248Z,13.90
2019-01-21T17:06:39.528Z,13.87
2019-01-21T17:09:11.013Z,13.00
2019-01-21T17:11:40.121Z,13.23
2019-01-21T17:14:11.421Z,12.77
2019-01-21T17:16:40.532Z,12.50
2019-01-21T17:19:09.692Z,12.90
2019-01-21T17:21:39.035Z,12.70
2019-01-21T17:24:08.131Z,12.27
2019-01-21T17:26:37.363Z,12.03
2019-01-21T17:29:06.455Z,12.63
2019-01-21T17:31:35.563Z,11.90
2019-01-21T17:34:05.162Z,12.40
2019-01-21T17:36:34.264Z,12.37
2019-01-21T17:39:04.201Z,11.60
2019-01-21T17:41:33.295Z,12.47
2019-01-21T17:44:02.416Z,13.60
2019-01-21T17:46:31.532Z,11.97
2019-01-21T17:49:00.621Z,11.37
2019-01-21T17:51:33.796Z,10.67
2019-01-21T17:54:00.682Z,11.23
2019-01-21T17:56:29.765Z,11.03
2019-01-21T17:58:58.877Z,10.07
2019-01-21T18:01:27.964Z,10.87
2019-01-21T18:03:57.082Z,10.50
2019-01-21T18:06:26.169Z,10.37
2019-01-21T18:08:55.289Z,11.57
2019-01-21T18:11:24.405Z,11.23
2019-01-21T18:13:53.505Z,11.67
2019-01-21T18:16:22.599Z,12.07
2019-01-21T18:18:51.708Z,13.33
2019-01-21T18:21:20.797Z,13.57
2019-01-21T18:23:49.922Z,12.50
2019-01-21T18:26:19.025Z,13.87
2019-01-21T18:28:48.129Z,14.57
2019-01-21T18:31:17.230Z,13.83
2019-01-21T18:33:46.346Z,12.63
2019-01-21T18:36:15.543Z,10.97
2019-01-21T18:38:44.734Z,13.00
2019-01-21T18:41:13.837Z,14.20
2019-01-21T18:43:43.065Z,12.80
2019-01-21T18:46:12.171Z,13.77
2019-01-21T18:48:41.281Z,13.27
2019-01-21T18:51:10.404Z,12.57
2019-01-21T18:53:39.521Z,11.93
2019-01-21T18:56:08.615Z,11.87
2019-01-21T18:58:37.740Z,11.33
2019-01-21T19:01:06.829Z,12.13
2019-01-21T19:03:35.935Z,11.40
2019-01-21T19:06:05.126Z,12.50
2019-01-21T19:08:34.237Z,12.30
2019-01-21T19:11:03.338Z,11.90
2019-01-21T19:13:32.420Z,12.03
2019-01-21T19:16:01.534Z,12.20
2019-01-21T19:18:30.624Z,11.90
2019-01-21T19:20:59.733Z,12.30
2019-01-21T19:23:28.837Z,13.20
2019-01-21T19:25:57.961Z,13.90
2019-01-21T19:28:27.048Z,13.73
2019-01-21T19:30:56.177Z,12.60
2019-01-21T19:33:25.267Z,12.87
2019-01-21T19:35:54.376Z,12.60
2019-01-21T19:38:23.461Z,11.97
2019-01-21T19:40:52.568Z,12.07
2019-01-21T19:43:21.653Z,11.93
2019-01-21T19:45:50.759Z,10.97
2019-01-21T19:48:19.848Z,11.80
2019-01-21T19:50:48.993Z,11.70
2019-01-21T19:53:18.078Z,13.93
2019-01-21T19:55:47.195Z,12.57
2019-01-21T19:58:17.183Z,12.50
2019-01-21T20:00:46.310Z,11.77
2019-01-21T20:03:15.413Z,12.90
2019-01-21T20:05:44.529Z,11.73
2019-01-21T20:08:13.618Z,13.13
2019-01-21T20:10:42.725Z,12.93
2019-01-21T20:13:11.816Z,12.30
2019-01-21T20:15:40.926Z,12.83
2019-01-21T20:18:10.008Z,13.07
2019-01-21T20:20:40.782Z,12.33
2019-01-21T20:23:09.922Z,12.67
2019-01-21T20:25:39.032Z,12.50
2019-01-21T20:28:08.155Z,12.80
2019-01-21T20:30:37.272Z,11.23
2019-01-21T20:33:06.468Z,13.03
2019-01-21T20:35:35.585Z,13.20
2019-01-21T20:38:04.777Z,11.90
2019-01-21T20:40:33.886Z,13.90
2019-01-21T20:43:02.980Z,12.17
2019-01-21T20:45:32.089Z,12.43
2019-01-21T20:48:01.177Z,12.33
2019-01-21T20:50:31.037Z,10.73
2019-01-21T20:53:00.136Z,11.37
2019-01-21T20:55:29.254Z,11.17
2019-01-21T20:57:58.338Z,11.40
2019-01-21T21:00:28.746Z,14.07
2019-01-21T21:02:58.424Z,12.27
2019-01-21T21:05:27.544Z,11.93
2019-01-21T21:07:56.658Z,11.37
2019-01-21T21:10:25.793Z,12.83
2019-01-21T21:12:54.895Z,12.27
2019-01-21T21:15:26.373Z,10.43
2019-01-21T21:17:55.492Z,10.50
2019-01-21T21:20:24.605Z,10.70
2019-01-21T21:22:53.692Z,13.43
2019-01-21T21:25:22.993Z,11.83
2019-01-21T21:27:52.101Z,12.00
2019-01-21T21:30:23.524Z,11.63
2019-01-21T21:32:52.679Z,12.50
2019-01-21T21:35:22.037Z,12.27
2019-01-21T21:37:51.146Z,12.10
2019-01-21T21:40:20.699Z,11.67
2019-01-21T21:42:49.804Z,11.17
2019-01-21T21:45:19.415Z,18.27
2019-01-21T21:47:48.561Z,11.97
2019-01-21T21:50:20.129Z,10.57
2019-01-21T21:52:49.268Z,11.20
2019-01-21T21:55:18.357Z,11.53
2019-01-21T21:57:47.478Z,11.63
2019-01-21T22:00:19.177Z,10.40
2019-01-21T22:02:48.288Z,11.17
2019-01-21T22:05:17.681Z,10.90
2019-01-21T22:07:46.790Z,10.63
2019-01-21T22:10:19.779Z,10.20
2019-01-21T22:12:48.181Z,11.70
2019-01-21T22:15:18.889Z,10.73
2019-01-21T22:17:48.006Z,11.13
2019-01-21T22:20:18.700Z,10.97
2019-01-21T22:22:47.821Z,11.03
2019-01-21T22:25:17.185Z,12.63
2019-01-21T22:27:46.296Z,12.33
2019-01-21T22:30:17.770Z,12.17
2019-01-21T22:32:46.891Z,11.10
2019-01-21T22:35:15.999Z,11.20
2019-01-21T22:37:45.390Z,10.87
2019-01-21T22:40:16.356Z,11.67
2019-01-21T22:42:45.484Z,11.03
2019-01-21T22:45:15.509Z,11.43
2019-01-21T22:47:44.654Z,11.07
2019-01-21T22:50:14.346Z,11.13
2019-01-21T22:52:43.481Z,11.87
2019-01-21T22:55:13.651Z,11.83
2019-01-21T22:57:42.764Z,11.10
2019-01-21T23:00:53.097Z,12.33
2019-01-21T23:03:22.353Z,12.37
2019-01-21T23:05:51.437Z,12.93
2019-01-21T23:08:20.918Z,11.13
2019-01-21T23:10:50.001Z,12.43
2019-01-21T23:13:19.109Z,11.93
2019-01-21T23:15:48.201Z,12.00
2019-01-21T23:18:17.307Z,13.00
2019-01-21T23:20:46.387Z,12.80
2019-01-21T23:23:15.528Z,12.17
2019-01-21T23:25:44.622Z,11.43
2019-01-21T23:28:13.726Z,12.90
2019-01-21T23:30:42.817Z,10.83
2019-01-21T23:33:11.920Z,10.93
2019-01-21T23:35:41.000Z,11.20
2019-01-21T23:38:10.113Z,11.27
2019-01-21T23:40:39.200Z,11.50
2019-01-21T23:43:08.311Z,11.13
2019-01-21T23:45:37.399Z,11.30
2019-01-21T23:48:06.680Z,11.60
2019-01-21T23:50:35.779Z,11.60
2019-01-21T23:53:05.301Z,11.43
2019-01-21T23:55:34.383Z,11.33
2019-01-21T23:58:03.484Z,11.03
